sensor_id;sensor_type;location;lat;lon;timestamp;P1;durP1;ratioP1;P2;durP2;ratioP2
28724;SDS011;43472;48.980;9.646;2023-04-06T00:03:44;15.52;;;9.50;;
28724;SDS011;43472;48.980;9.646;2023-04-06T00:08:46;16.58;;;9.73;;
28724;SDS011;43472;48.980;9.646;2023-04-06T00:13:48;17.15;;;9.50;;
28724;SDS011;43472;48.980;9.646;2023-04-06T00:18:50;15.80;;;9.65;;
28724;SDS011;43472;48.980;9.646;2023-04-06T00:23:53;13.18;;;9.38;;
28724;SDS011;43472;48.980;9.646;2023-04-06T00:28:55;13.48;;;9.48;;
28724;SDS011;43472;48.980;9.646;2023-04-06T00:33:57;17.80;;;10.45;;
28724;SDS011;43472;48.980;9.646;2023-04-06T00:39:00;16.90;;;10.05;;
28724;SDS011;43472;48.980;9.646;2023-04-06T00:44:02;16.85;;;11.05;;
28724;SDS011;43472;48.980;9.646;2023-04-06T00:49:04;22.55;;;12.77;;
28724;SDS011;43472;48.980;9.646;2023-04-06T00:54:07;19.60;;;11.77;;
28724;SDS011;43472;48.980;9.646;2023-04-06T00:59:10;20.65;;;13.35;;
28724;SDS011;43472;48.980;9.646;2023-04-06T01:04:13;19.80;;;11.50;;
28724;SDS011;43472;48.980;9.646;2023-04-06T01:09:15;19.23;;;12.13;;
28724;SDS011;43472;48.980;9.646;2023-04-06T01:14:18;16.65;;;11.30;;
28724;SDS011;43472;48.980;9.646;2023-04-06T01:19:21;18.70;;;11.57;;
28724;SDS011;43472;48.980;9.646;2023-04-06T01:24:23;19.75;;;12.27;;
28724;SDS011;43472;48.980;9.646;2023-04-06T01:29:26;20.45;;;12.38;;
28724;SDS011;43472;48.980;9.646;2023-04-06T01:34:28;21.25;;;12.02;;
28724;SDS011;43472;48.980;9.646;2023-04-06T01:39:30;20.42;;;10.85;;
28724;SDS011;43472;48.980;9.646;2023-04-06T01:44:32;18.08;;;10.52;;
28724;SDS011;43472;48.980;9.646;2023-04-06T01:49:34;17.75;;;11.27;;
28724;SDS011;43472;48.980;9.646;2023-04-06T01:54:36;16.02;;;11.40;;
28724;SDS011;43472;48.980;9.646;2023-04-06T01:59:37;17.20;;;11.15;;
28724;SDS011;43472;48.980;9.646;2023-04-06T02:04:40;19.13;;;12.25;;
28724;SDS011;43472;48.980;9.646;2023-04-06T02:09:42;16.75;;;12.20;;
28724;SDS011;43472;48.980;9.646;2023-04-06T02:14:44;16.23;;;11.18;;
28724;SDS011;43472;48.980;9.646;2023-04-06T02:19:46;15.90;;;10.48;;
28724;SDS011;43472;48.980;9.646;2023-04-06T02:24:48;17.65;;;11.20;;
28724;SDS011;43472;48.980;9.646;2023-04-06T02:29:49;18.17;;;10.52;;
28724;SDS011;43472;48.980;9.646;2023-04-06T02:34:51;20.83;;;11.40;;
28724;SDS011;43472;48.980;9.646;2023-04-06T02:39:53;18.17;;;11.05;;
28724;SDS011;43472;48.980;9.646;2023-04-06T02:44:55;15.82;;;11.25;;
28724;SDS011;43472;48.980;9.646;2023-04-06T02:49:57;16.52;;;11.15;;
28724;SDS011;43472;48.980;9.646;2023-04-06T02:54:59;17.92;;;11.38;;
28724;SDS011;43472;48.980;9.646;2023-04-06T03:00:01;17.25;;;10.73;;
28724;SDS011;43472;48.980;9.646;2023-04-06T03:05:04;19.05;;;11.68;;
28724;SDS011;43472;48.980;9.646;2023-04-06T03:10:06;17.48;;;11.55;;
28724;SDS011;43472;48.980;9.646;2023-04-06T03:15:09;15.23;;;10.30;;
28724;SDS011;43472;48.980;9.646;2023-04-06T03:20:11;20.35;;;11.80;;
28724;SDS011;43472;48.980;9.646;2023-04-06T03:25:14;16.15;;;9.55;;
28724;SDS011;43472;48.980;9.646;2023-04-06T03:30:16;14.60;;;9.57;;
28724;SDS011;43472;48.980;9.646;2023-04-06T03:35:21;14.73;;;10.45;;
28724;SDS011;43472;48.980;9.646;2023-04-06T03:40:23;18.45;;;10.68;;
28724;SDS011;43472;48.980;9.646;2023-04-06T03:45:25;17.48;;;10.93;;
28724;SDS011;43472;48.980;9.646;2023-04-06T03:50:27;17.67;;;10.18;;
28724;SDS011;43472;48.980;9.646;2023-04-06T03:55:29;21.80;;;10.98;;
28724;SDS011;43472;48.980;9.646;2023-04-06T04:00:31;18.83;;;11.50;;
28724;SDS011;43472;48.980;9.646;2023-04-06T04:05:34;16.05;;;11.40;;
28724;SDS011;43472;48.980;9.646;2023-04-06T04:10:36;16.23;;;10.45;;
28724;SDS011;43472;48.980;9.646;2023-04-06T04:15:38;17.35;;;10.63;;
28724;SDS011;43472;48.980;9.646;2023-04-06T04:20:40;14.98;;;9.00;;
28724;SDS011;43472;48.980;9.646;2023-04-06T04:25:43;16.67;;;10.35;;
28724;SDS011;43472;48.980;9.646;2023-04-06T04:30:45;21.10;;;10.95;;
28724;SDS011;43472;48.980;9.646;2023-04-06T04:35:47;17.88;;;10.85;;
28724;SDS011;43472;48.980;9.646;2023-04-06T04:40:49;16.35;;;11.13;;
28724;SDS011;43472;48.980;9.646;2023-04-06T04:45:51;16.88;;;10.93;;
28724;SDS011;43472;48.980;9.646;2023-04-06T04:50:53;16.05;;;10.93;;
28724;SDS011;43472;48.980;9.646;2023-04-06T04:55:56;21.58;;;11.20;;
28724;SDS011;43472;48.980;9.646;2023-04-06T05:00:58;16.90;;;11.32;;
28724;SDS011;43472;48.980;9.646;2023-04-06T05:06:00;19.45;;;12.18;;
28724;SDS011;43472;48.980;9.646;2023-04-06T05:11:02;18.25;;;11.82;;
28724;SDS011;43472;48.980;9.646;2023-04-06T05:16:04;20.83;;;12.57;;
28724;SDS011;43472;48.980;9.646;2023-04-06T05:21:06;19.88;;;13.48;;
28724;SDS011;43472;48.980;9.646;2023-04-06T05:26:08;21.15;;;12.98;;
28724;SDS011;43472;48.980;9.646;2023-04-06T05:31:10;40.80;;;18.58;;
28724;SDS011;43472;48.980;9.646;2023-04-06T05:36:12;105.25;;;39.22;;
28724;SDS011;43472;48.980;9.646;2023-04-06T05:41:15;71.28;;;31.05;;
28724;SDS011;43472;48.980;9.646;2023-04-06T05:46:17;64.65;;;26.05;;
28724;SDS011;43472;48.980;9.646;2023-04-06T05:51:19;51.53;;;23.33;;
28724;SDS011;43472;48.980;9.646;2023-04-06T05:56:21;44.40;;;21.75;;
28724;SDS011;43472;48.980;9.646;2023-04-06T06:01:25;33.90;;;17.75;;
28724;SDS011;43472;48.980;9.646;2023-04-06T06:06:27;36.70;;;19.52;;
28724;SDS011;43472;48.980;9.646;2023-04-06T06:11:31;34.28;;;18.65;;
28724;SDS011;43472;48.980;9.646;2023-04-06T06:16:34;33.22;;;19.42;;
28724;SDS011;43472;48.980;9.646;2023-04-06T06:21:36;29.60;;;17.73;;
28724;SDS011;43472;48.980;9.646;2023-04-06T06:26:38;37.53;;;22.05;;
28724;SDS011;43472;48.980;9.646;2023-04-06T06:31:41;31.17;;;19.52;;
28724;SDS011;43472;48.980;9.646;2023-04-06T06:36:43;30.27;;;18.27;;
28724;SDS011;43472;48.980;9.646;2023-04-06T06:41:48;33.78;;;20.73;;
28724;SDS011;43472;48.980;9.646;2023-04-06T06:46:50;34.72;;;19.50;;
28724;SDS011;43472;48.980;9.646;2023-04-06T06:51:52;31.30;;;18.48;;
28724;SDS011;43472;48.980;9.646;2023-04-06T06:56:54;28.98;;;16.92;;
28724;SDS011;43472;48.980;9.646;2023-04-06T07:01:56;32.30;;;19.80;;
28724;SDS011;43472;48.980;9.646;2023-04-06T07:06:58;28.48;;;19.77;;
28724;SDS011;43472;48.980;9.646;2023-04-06T07:12:00;27.58;;;18.45;;
28724;SDS011;43472;48.980;9.646;2023-04-06T07:17:03;27.08;;;17.10;;
28724;SDS011;43472;48.980;9.646;2023-04-06T07:22:05;28.55;;;18.88;;
28724;SDS011;43472;48.980;9.646;2023-04-06T07:27:07;27.63;;;18.10;;
28724;SDS011;43472;48.980;9.646;2023-04-06T07:32:09;26.40;;;16.05;;
28724;SDS011;43472;48.980;9.646;2023-04-06T07:37:12;29.20;;;17.25;;
28724;SDS011;43472;48.980;9.646;2023-04-06T07:42:14;25.10;;;16.67;;
28724;SDS011;43472;48.980;9.646;2023-04-06T07:47:16;23.42;;;15.95;;
28724;SDS011;43472;48.980;9.646;2023-04-06T07:52:18;22.17;;;15.07;;
28724;SDS011;43472;48.980;9.646;2023-04-06T07:57:20;23.80;;;16.13;;
28724;SDS011;43472;48.980;9.646;2023-04-06T08:02:22;20.40;;;14.63;;
28724;SDS011;43472;48.980;9.646;2023-04-06T08:07:24;18.10;;;12.02;;
28724;SDS011;43472;48.980;9.646;2023-04-06T08:12:26;17.25;;;9.50;;
28724;SDS011;43472;48.980;9.646;2023-04-06T08:17:28;16.38;;;9.93;;
28724;SDS011;43472;48.980;9.646;2023-04-06T08:22:31;13.30;;;8.52;;
28724;SDS011;43472;48.980;9.646;2023-04-06T08:27:33;13.32;;;8.63;;
28724;SDS011;43472;48.980;9.646;2023-04-06T08:32:35;13.52;;;8.13;;
28724;SDS011;43472;48.980;9.646;2023-04-06T08:37:37;18.30;;;8.52;;
28724;SDS011;43472;48.980;9.646;2023-04-06T08:42:40;12.68;;;8.02;;
28724;SDS011;43472;48.980;9.646;2023-04-06T08:47:45;14.07;;;7.82;;
28724;SDS011;43472;48.980;9.646;2023-04-06T08:52:49;12.52;;;7.93;;
28724;SDS011;43472;48.980;9.646;2023-04-06T08:57:51;13.43;;;7.07;;
28724;SDS011;43472;48.980;9.646;2023-04-06T09:02:56;11.77;;;7.65;;
28724;SDS011;43472;48.980;9.646;2023-04-06T09:08:00;12.13;;;7.18;;
28724;SDS011;43472;48.980;9.646;2023-04-06T09:13:02;12.48;;;6.60;;
28724;SDS011;43472;48.980;9.646;2023-04-06T09:18:08;14.07;;;7.22;;
28724;SDS011;43472;48.980;9.646;2023-04-06T09:23:19;15.35;;;6.07;;
28724;SDS011;43472;48.980;9.646;2023-04-06T09:28:21;11.40;;;6.65;;
28724;SDS011;43472;48.980;9.646;2023-04-06T09:33:23;9.27;;;5.53;;
28724;SDS011;43472;48.980;9.646;2023-04-06T09:38:25;10.40;;;6.50;;
28724;SDS011;43472;48.980;9.646;2023-04-06T09:43:27;9.70;;;5.60;;
28724;SDS011;43472;48.980;9.646;2023-04-06T09:48:30;9.02;;;6.18;;
28724;SDS011;43472;48.980;9.646;2023-04-06T09:53:35;10.60;;;7.50;;
28724;SDS011;43472;48.980;9.646;2023-04-06T09:58:40;10.93;;;6.22;;
28724;SDS011;43472;48.980;9.646;2023-04-06T10:09:05;11.73;;;6.82;;
28724;SDS011;43472;48.980;9.646;2023-04-06T10:14:09;11.32;;;6.60;;
28724;SDS011;43472;48.980;9.646;2023-04-06T10:19:15;9.35;;;5.88;;
28724;SDS011;43472;48.980;9.646;2023-04-06T10:24:21;8.75;;;5.95;;
28724;SDS011;43472;48.980;9.646;2023-04-06T10:29:24;10.68;;;5.88;;
28724;SDS011;43472;48.980;9.646;2023-04-06T10:34:33;9.45;;;6.43;;
28724;SDS011;43472;48.980;9.646;2023-04-06T10:39:45;7.55;;;5.75;;
28724;SDS011;43472;48.980;9.646;2023-04-06T10:44:49;9.20;;;5.82;;
28724;SDS011;43472;48.980;9.646;2023-04-06T10:49:51;12.02;;;5.35;;
28724;SDS011;43472;48.980;9.646;2023-04-06T10:54:53;8.90;;;5.55;;
28724;SDS011;43472;48.980;9.646;2023-04-06T10:59:57;7.93;;;4.65;;
28724;SDS011;43472;48.980;9.646;2023-04-06T11:04:59;8.25;;;5.43;;
28724;SDS011;43472;48.980;9.646;2023-04-06T11:10:02;9.20;;;5.13;;
28724;SDS011;43472;48.980;9.646;2023-04-06T11:15:16;8.45;;;5.47;;
28724;SDS011;43472;48.980;9.646;2023-04-06T11:20:18;7.30;;;5.28;;
28724;SDS011;43472;48.980;9.646;2023-04-06T11:25:21;9.07;;;5.38;;
28724;SDS011;43472;48.980;9.646;2023-04-06T11:30:23;11.35;;;5.25;;
28724;SDS011;43472;48.980;9.646;2023-04-06T11:35:25;9.88;;;4.95;;
28724;SDS011;43472;48.980;9.646;2023-04-06T11:40:26;21.35;;;10.30;;
28724;SDS011;43472;48.980;9.646;2023-04-06T11:45:39;8.45;;;5.13;;
28724;SDS011;43472;48.980;9.646;2023-04-06T11:50:43;8.65;;;4.80;;
28724;SDS011;43472;48.980;9.646;2023-04-06T11:55:49;6.50;;;5.03;;
28724;SDS011;43472;48.980;9.646;2023-04-06T12:00:51;5.97;;;5.15;;
28724;SDS011;43472;48.980;9.646;2023-04-06T12:05:54;8.68;;;5.38;;
28724;SDS011;43472;48.980;9.646;2023-04-06T12:10:58;9.88;;;4.97;;
28724;SDS011;43472;48.980;9.646;2023-04-06T12:16:00;6.70;;;4.53;;
28724;SDS011;43472;48.980;9.646;2023-04-06T12:21:02;7.18;;;4.65;;
28724;SDS011;43472;48.980;9.646;2023-04-06T12:26:04;7.38;;;5.10;;
28724;SDS011;43472;48.980;9.646;2023-04-06T12:31:16;7.35;;;4.78;;
28724;SDS011;43472;48.980;9.646;2023-04-06T12:36:19;6.63;;;4.57;;
28724;SDS011;43472;48.980;9.646;2023-04-06T12:41:22;5.13;;;3.67;;
28724;SDS011;43472;48.980;9.646;2023-04-06T12:46:24;7.57;;;4.28;;
28724;SDS011;43472;48.980;9.646;2023-04-06T12:51:29;11.02;;;6.35;;
28724;SDS011;43472;48.980;9.646;2023-04-06T12:56:32;12.80;;;5.65;;
28724;SDS011;43472;48.980;9.646;2023-04-06T13:01:34;6.55;;;4.03;;
28724;SDS011;43472;48.980;9.646;2023-04-06T13:06:36;5.28;;;4.00;;
28724;SDS011;43472;48.980;9.646;2023-04-06T13:11:38;7.32;;;4.40;;
28724;SDS011;43472;48.980;9.646;2023-04-06T13:16:40;4.50;;;3.50;;
28724;SDS011;43472;48.980;9.646;2023-04-06T13:21:42;8.20;;;4.60;;
28724;SDS011;43472;48.980;9.646;2023-04-06T13:26:44;11.02;;;4.07;;
28724;SDS011;43472;48.980;9.646;2023-04-06T13:31:46;8.18;;;5.10;;
28724;SDS011;43472;48.980;9.646;2023-04-06T13:36:48;6.43;;;4.68;;
28724;SDS011;43472;48.980;9.646;2023-04-06T13:41:49;6.32;;;4.38;;
28724;SDS011;43472;48.980;9.646;2023-04-06T13:46:52;6.70;;;3.90;;
28724;SDS011;43472;48.980;9.646;2023-04-06T13:51:54;6.82;;;4.43;;
28724;SDS011;43472;48.980;9.646;2023-04-06T13:56:56;9.90;;;4.70;;
28724;SDS011;43472;48.980;9.646;2023-04-06T14:01:58;7.88;;;4.45;;
28724;SDS011;43472;48.980;9.646;2023-04-06T14:07:01;7.22;;;4.95;;
28724;SDS011;43472;48.980;9.646;2023-04-06T14:12:03;6.60;;;4.68;;
28724;SDS011;43472;48.980;9.646;2023-04-06T14:17:06;9.35;;;6.03;;
28724;SDS011;43472;48.980;9.646;2023-04-06T14:22:08;18.65;;;6.90;;
28724;SDS011;43472;48.980;9.646;2023-04-06T14:27:10;15.13;;;8.20;;
28724;SDS011;43472;48.980;9.646;2023-04-06T14:32:12;121.63;;;29.73;;
28724;SDS011;43472;48.980;9.646;2023-04-06T14:37:14;6.57;;;4.85;;
28724;SDS011;43472;48.980;9.646;2023-04-06T14:42:17;8.20;;;4.32;;
28724;SDS011;43472;48.980;9.646;2023-04-06T14:47:19;6.75;;;3.97;;
28724;SDS011;43472;48.980;9.646;2023-04-06T14:52:22;10.40;;;4.43;;
28724;SDS011;43472;48.980;9.646;2023-04-06T14:57:24;7.28;;;4.38;;
28724;SDS011;43472;48.980;9.646;2023-04-06T15:02:26;26.83;;;10.05;;
28724;SDS011;43472;48.980;9.646;2023-04-06T15:07:28;7.45;;;5.03;;
28724;SDS011;43472;48.980;9.646;2023-04-06T15:12:30;9.05;;;4.85;;
28724;SDS011;43472;48.980;9.646;2023-04-06T15:17:33;15.07;;;8.93;;
28724;SDS011;43472;48.980;9.646;2023-04-06T15:22:35;5.88;;;2.95;;
28724;SDS011;43472;48.980;9.646;2023-04-06T15:27:37;38.95;;;23.13;;
28724;SDS011;43472;48.980;9.646;2023-04-06T15:32:39;12.10;;;5.28;;
28724;SDS011;43472;48.980;9.646;2023-04-06T15:37:41;6.63;;;4.53;;
28724;SDS011;43472;48.980;9.646;2023-04-06T15:42:44;5.43;;;3.35;;
28724;SDS011;43472;48.980;9.646;2023-04-06T15:47:46;5.72;;;4.07;;
28724;SDS011;43472;48.980;9.646;2023-04-06T15:52:49;18.25;;;11.45;;
28724;SDS011;43472;48.980;9.646;2023-04-06T15:57:51;19.55;;;8.77;;
28724;SDS011;43472;48.980;9.646;2023-04-06T16:02:53;13.70;;;4.80;;
28724;SDS011;43472;48.980;9.646;2023-04-06T16:07:55;28.60;;;11.13;;
28724;SDS011;43472;48.980;9.646;2023-04-06T16:12:57;7.80;;;3.90;;
28724;SDS011;43472;48.980;9.646;2023-04-06T16:17:59;7.03;;;3.50;;
28724;SDS011;43472;48.980;9.646;2023-04-06T16:23:03;7.82;;;4.93;;
28724;SDS011;43472;48.980;9.646;2023-04-06T16:28:05;8.23;;;4.00;;
28724;SDS011;43472;48.980;9.646;2023-04-06T16:33:07;13.85;;;7.43;;
28724;SDS011;43472;48.980;9.646;2023-04-06T16:38:10;6.03;;;4.15;;
28724;SDS011;43472;48.980;9.646;2023-04-06T16:43:13;12.50;;;6.57;;
28724;SDS011;43472;48.980;9.646;2023-04-06T16:48:15;7.55;;;4.55;;
28724;SDS011;43472;48.980;9.646;2023-04-06T16:53:17;35.17;;;14.77;;
28724;SDS011;43472;48.980;9.646;2023-04-06T16:58:19;20.98;;;8.15;;
28724;SDS011;43472;48.980;9.646;2023-04-06T17:03:21;14.85;;;7.63;;
28724;SDS011;43472;48.980;9.646;2023-04-06T17:08:23;26.83;;;9.70;;
28724;SDS011;43472;48.980;9.646;2023-04-06T17:13:25;14.57;;;6.75;;
28724;SDS011;43472;48.980;9.646;2023-04-06T17:18:27;15.30;;;6.75;;
28724;SDS011;43472;48.980;9.646;2023-04-06T17:23:32;11.00;;;5.72;;
28724;SDS011;43472;48.980;9.646;2023-04-06T17:28:35;8.75;;;3.80;;
28724;SDS011;43472;48.980;9.646;2023-04-06T17:33:37;5.60;;;3.58;;
28724;SDS011;43472;48.980;9.646;2023-04-06T17:38:40;6.05;;;4.00;;
28724;SDS011;43472;48.980;9.646;2023-04-06T17:43:44;6.45;;;3.42;;
28724;SDS011;43472;48.980;9.646;2023-04-06T17:48:46;6.07;;;3.95;;
28724;SDS011;43472;48.980;9.646;2023-04-06T17:53:50;6.40;;;3.88;;
28724;SDS011;43472;48.980;9.646;2023-04-06T17:58:54;9.70;;;4.25;;
28724;SDS011;43472;48.980;9.646;2023-04-06T18:03:59;21.08;;;8.80;;
28724;SDS011;43472;48.980;9.646;2023-04-06T18:09:01;12.95;;;6.75;;
28724;SDS011;43472;48.980;9.646;2023-04-06T18:14:07;25.20;;;13.50;;
28724;SDS011;43472;48.980;9.646;2023-04-06T18:19:10;11.88;;;6.63;;
28724;SDS011;43472;48.980;9.646;2023-04-06T18:24:12;58.15;;;29.50;;
28724;SDS011;43472;48.980;9.646;2023-04-06T18:29:34;13.95;;;6.75;;
28724;SDS011;43472;48.980;9.646;2023-04-06T18:34:37;18.50;;;10.13;;
28724;SDS011;43472;48.980;9.646;2023-04-06T18:39:41;43.58;;;20.67;;
28724;SDS011;43472;48.980;9.646;2023-04-06T18:44:44;15.63;;;6.35;;
28724;SDS011;43472;48.980;9.646;2023-04-06T18:49:46;10.00;;;4.18;;
28724;SDS011;43472;48.980;9.646;2023-04-06T18:54:48;13.30;;;6.43;;
28724;SDS011;43472;48.980;9.646;2023-04-06T18:59:50;8.57;;;3.70;;
28724;SDS011;43472;48.980;9.646;2023-04-06T19:04:52;8.35;;;4.43;;
28724;SDS011;43472;48.980;9.646;2023-04-06T19:09:54;14.25;;;6.75;;
28724;SDS011;43472;48.980;9.646;2023-04-06T19:14:56;16.98;;;7.22;;
28724;SDS011;43472;48.980;9.646;2023-04-06T19:19:58;10.65;;;4.15;;
28724;SDS011;43472;48.980;9.646;2023-04-06T19:25:01;6.63;;;4.22;;
28724;SDS011;43472;48.980;9.646;2023-04-06T19:30:04;9.38;;;5.20;;
28724;SDS011;43472;48.980;9.646;2023-04-06T19:35:06;9.73;;;5.85;;
28724;SDS011;43472;48.980;9.646;2023-04-06T19:40:08;16.17;;;6.50;;
28724;SDS011;43472;48.980;9.646;2023-04-06T19:45:11;8.48;;;4.40;;
28724;SDS011;43472;48.980;9.646;2023-04-06T19:50:13;7.95;;;4.97;;
28724;SDS011;43472;48.980;9.646;2023-04-06T19:55:15;7.38;;;4.82;;
28724;SDS011;43472;48.980;9.646;2023-04-06T20:00:18;9.55;;;5.63;;
28724;SDS011;43472;48.980;9.646;2023-04-06T20:05:20;9.27;;;5.22;;
28724;SDS011;43472;48.980;9.646;2023-04-06T20:10:22;8.60;;;5.38;;
28724;SDS011;43472;48.980;9.646;2023-04-06T20:15:24;9.63;;;6.43;;
28724;SDS011;43472;48.980;9.646;2023-04-06T20:20:27;6.47;;;4.35;;
28724;SDS011;43472;48.980;9.646;2023-04-06T20:25:29;7.88;;;5.00;;
28724;SDS011;43472;48.980;9.646;2023-04-06T20:30:32;13.00;;;6.45;;
28724;SDS011;43472;48.980;9.646;2023-04-06T20:35:34;9.18;;;5.88;;
28724;SDS011;43472;48.980;9.646;2023-04-06T20:40:36;8.75;;;5.10;;
28724;SDS011;43472;48.980;9.646;2023-04-06T20:45:38;12.13;;;5.10;;
28724;SDS011;43472;48.980;9.646;2023-04-06T20:50:40;13.30;;;6.25;;
28724;SDS011;43472;48.980;9.646;2023-04-06T20:55:42;13.77;;;6.20;;
28724;SDS011;43472;48.980;9.646;2023-04-06T21:00:46;8.32;;;4.80;;
28724;SDS011;43472;48.980;9.646;2023-04-06T21:05:53;7.22;;;5.28;;
28724;SDS011;43472;48.980;9.646;2023-04-06T21:10:57;12.38;;;6.65;;
28724;SDS011;43472;48.980;9.646;2023-04-06T21:15:59;17.05;;;8.40;;
28724;SDS011;43472;48.980;9.646;2023-04-06T21:21:02;13.20;;;7.55;;
28724;SDS011;43472;48.980;9.646;2023-04-06T21:26:04;13.98;;;7.63;;
28724;SDS011;43472;48.980;9.646;2023-04-06T21:31:06;12.75;;;4.50;;
28724;SDS011;43472;48.980;9.646;2023-04-06T21:36:11;12.60;;;5.95;;
28724;SDS011;43472;48.980;9.646;2023-04-06T21:41:12;13.38;;;6.53;;
28724;SDS011;43472;48.980;9.646;2023-04-06T21:46:15;9.90;;;6.43;;
28724;SDS011;43472;48.980;9.646;2023-04-06T21:51:17;10.18;;;5.47;;
28724;SDS011;43472;48.980;9.646;2023-04-06T21:56:20;10.95;;;6.68;;
28724;SDS011;43472;48.980;9.646;2023-04-06T22:01:23;12.27;;;6.53;;
28724;SDS011;43472;48.980;9.646;2023-04-06T22:06:28;13.95;;;7.85;;
28724;SDS011;43472;48.980;9.646;2023-04-06T22:11:30;9.32;;;5.40;;
28724;SDS011;43472;48.980;9.646;2023-04-06T22:16:32;10.75;;;6.00;;
28724;SDS011;43472;48.980;9.646;2023-04-06T22:21:34;9.70;;;5.95;;
28724;SDS011;43472;48.980;9.646;2023-04-06T22:26:36;11.32;;;5.82;;
28724;SDS011;43472;48.980;9.646;2023-04-06T22:31:39;9.32;;;4.90;;
28724;SDS011;43472;48.980;9.646;2023-04-06T22:36:41;5.97;;;4.25;;
28724;SDS011;43472;48.980;9.646;2023-04-06T22:41:43;8.32;;;4.72;;
28724;SDS011;43472;48.980;9.646;2023-04-06T22:46:45;6.32;;;4.57;;
28724;SDS011;43472;48.980;9.646;2023-04-06T22:51:47;9.25;;;4.82;;
28724;SDS011;43472;48.980;9.646;2023-04-06T22:56:48;6.95;;;4.25;;
28724;SDS011;43472;48.980;9.646;2023-04-06T23:01:51;7.65;;;3.83;;
28724;SDS011;43472;48.980;9.646;2023-04-06T23:06:53;6.18;;;3.90;;
28724;SDS011;43472;48.980;9.646;2023-04-06T23:11:55;6.28;;;3.70;;
28724;SDS011;43472;48.980;9.646;2023-04-06T23:16:57;6.65;;;3.53;;
28724;SDS011;43472;48.980;9.646;2023-04-06T23:21:58;7.05;;;3.22;;
28724;SDS011;43472;48.980;9.646;2023-04-06T23:27:01;5.40;;;3.28;;
28724;SDS011;43472;48.980;9.646;2023-04-06T23:32:03;4.00;;;3.08;;
28724;SDS011;43472;48.980;9.646;2023-04-06T23:37:05;5.90;;;3.28;;
28724;SDS011;43472;48.980;9.646;2023-04-06T23:42:07;6.25;;;4.32;;
28724;SDS011;43472;48.980;9.646;2023-04-06T23:47:09;7.03;;;4.28;;
28724;SDS011;43472;48.980;9.646;2023-04-06T23:52:12;7.78;;;4.13;;
28724;SDS011;43472;48.980;9.646;2023-04-06T23:57:14;5.70;;;4.03;;
